createdAt,value
2018-07-25T00:01:17.928Z,97266.27
2018-07-25T00:03:45.863Z,97267.89
2018-07-25T00:06:13.824Z,97262.33
2018-07-25T00:08:41.782Z,97259.98
2018-07-25T00:11:09.769Z,97263.16
2018-07-25T00:13:37.898Z,97265.95
2018-07-25T00:16:06.153Z,97271.91
2018-07-25T00:18:34.132Z,97278.34
2018-07-25T00:21:02.157Z,97266.97
2018-07-25T00:23:30.188Z,97270.83
2018-07-25T00:25:58.194Z,97271.34
2018-07-25T00:28:26.145Z,97276.62
2018-07-25T00:30:54.114Z,97276.43
2018-07-25T00:33:22.223Z,97271.19
2018-07-25T00:35:50.205Z,97267.00
2018-07-25T00:38:18.262Z,97268.75
2018-07-25T00:40:46.304Z,97259.95
2018-07-25T00:43:14.460Z,97258.80
2018-07-25T00:45:42.414Z,97258.11
2018-07-25T00:48:10.488Z,97252.56
2018-07-25T00:50:38.598Z,97251.78
2018-07-25T00:53:06.608Z,97238.45
2018-07-25T00:55:34.591Z,97230.06
2018-07-25T00:58:02.538Z,97241.05
2018-07-25T01:00:30.532Z,97234.33
2018-07-25T01:02:58.790Z,97233.65
2018-07-25T01:05:26.822Z,97228.82
2018-07-25T01:07:54.859Z,97226.33
2018-07-25T01:10:22.864Z,97223.62
2018-07-25T01:12:50.812Z,97221.97
2018-07-25T01:15:18.864Z,97216.81
2018-07-25T01:17:46.846Z,97216.16
2018-07-25T01:20:14.802Z,97214.17
2018-07-25T01:22:42.750Z,97211.72
2018-07-25T01:25:10.755Z,97213.09
2018-07-25T01:27:38.714Z,97213.75
2018-07-25T01:30:06.896Z,97215.88
2018-07-25T01:32:35.077Z,97204.28
2018-07-25T01:35:03.201Z,97211.87
2018-07-25T01:37:31.320Z,97210.78
2018-07-25T01:39:59.410Z,97212.59
2018-07-25T01:42:27.491Z,97208.59
2018-07-25T01:44:55.556Z,97214.91
2018-07-25T01:47:23.512Z,97209.63
2018-07-25T01:49:51.516Z,97209.49
2018-07-25T01:52:19.559Z,97217.63
2018-07-25T01:54:47.478Z,97223.94
2018-07-25T01:57:15.505Z,97235.05
2018-07-25T01:59:43.459Z,97225.71
2018-07-25T02:02:11.618Z,97242.52
2018-07-25T02:04:39.576Z,97236.96
2018-07-25T02:07:07.610Z,97234.06
2018-07-25T02:09:35.521Z,97232.03
2018-07-25T02:12:03.486Z,97238.80
2018-07-25T02:14:31.533Z,97231.90
2018-07-25T02:16:59.651Z,97230.99
2018-07-25T02:19:27.694Z,97229.52
2018-07-25T02:21:55.886Z,97228.36
2018-07-25T02:24:23.882Z,97234.53
2018-07-25T02:26:51.970Z,97229.73
2018-07-25T02:29:20.071Z,97237.60
2018-07-25T02:31:48.035Z,97236.42
2018-07-25T02:34:20.876Z,97236.78
2018-07-25T02:36:49.735Z,97247.09
2018-07-25T02:39:17.749Z,97245.06
2018-07-25T02:41:45.774Z,97244.65
2018-07-25T02:44:14.431Z,97248.98
2018-07-25T02:46:42.524Z,97246.59
2018-07-25T02:49:10.788Z,97277.48
2018-07-25T02:51:38.773Z,97259.10
2018-07-25T02:54:07.170Z,97258.28
2018-07-25T02:56:35.086Z,97258.09
2018-07-25T02:59:04.107Z,97263.16
2018-07-25T03:01:32.150Z,97265.46
2018-07-25T03:04:00.472Z,97273.28
2018-07-25T03:06:28.525Z,97264.26
2018-07-25T03:08:56.598Z,97258.27
2018-07-25T03:11:24.582Z,97274.10
2018-07-25T03:13:52.644Z,97265.41
2018-07-25T03:16:20.660Z,97258.50
2018-07-25T03:18:48.670Z,97264.11
2018-07-25T03:21:16.742Z,97259.65
2018-07-25T03:23:44.773Z,97267.11
2018-07-25T03:26:12.707Z,97261.41
2018-07-25T03:28:40.682Z,97260.03
2018-07-25T03:31:08.786Z,97263.30
2018-07-25T03:33:36.930Z,97261.46
2018-07-25T03:36:04.932Z,97275.64
2018-07-25T03:38:33.134Z,97263.44
2018-07-25T03:41:01.152Z,97260.99
2018-07-25T03:43:29.251Z,97282.36
2018-07-25T03:45:57.278Z,97262.97
2018-07-25T03:48:25.344Z,97263.42
2018-07-25T03:50:53.422Z,97264.33
2018-07-25T03:53:21.440Z,97264.60
2018-07-25T03:55:49.495Z,97258.75
2018-07-25T03:58:17.552Z,97265.98
2018-07-25T04:00:45.540Z,97265.61
2018-07-25T04:03:13.575Z,97273.22
2018-07-25T04:05:42.604Z,97273.48
2018-07-25T04:08:10.608Z,97275.26
2018-07-25T04:10:38.736Z,97282.58
2018-07-25T04:13:06.858Z,97288.00
2018-07-25T04:15:34.838Z,97294.11
2018-07-25T04:18:02.877Z,97296.75
2018-07-25T04:20:30.871Z,97289.75
2018-07-25T04:22:58.962Z,97291.55
2018-07-25T04:25:27.211Z,97294.85
2018-07-25T04:27:55.321Z,97296.97
2018-07-25T04:30:23.330Z,97303.60
2018-07-25T04:32:51.531Z,97297.80
2018-07-25T04:35:19.523Z,97297.52
2018-07-25T04:37:47.500Z,97302.81
2018-07-25T04:40:15.539Z,97296.41
2018-07-25T04:42:43.492Z,97303.48
2018-07-25T04:45:11.602Z,97301.37
2018-07-25T04:47:40.177Z,97305.03
2018-07-25T04:50:08.560Z,97297.05
2018-07-25T04:52:37.110Z,97293.55
2018-07-25T04:55:05.310Z,97308.59
2018-07-25T04:57:33.496Z,97305.52
2018-07-25T05:00:01.608Z,97314.69
2018-07-25T05:02:29.643Z,97307.73
2018-07-25T05:04:57.872Z,97314.52
2018-07-25T05:07:25.830Z,97316.52
2018-07-25T05:09:53.784Z,97320.85
2018-07-25T05:12:21.754Z,97318.14
2018-07-25T05:14:49.673Z,97317.56
2018-07-25T05:17:17.795Z,97324.19
2018-07-25T05:19:45.797Z,97317.31
2018-07-25T05:22:13.882Z,97320.97
2018-07-25T05:24:41.953Z,97320.26
2018-07-25T05:27:09.896Z,97330.89
2018-07-25T05:29:38.018Z,97316.23
2018-07-25T05:32:05.971Z,97327.05
2018-07-25T05:34:34.111Z,97324.67
2018-07-25T05:37:02.225Z,97317.50
2018-07-25T05:39:30.337Z,97324.97
2018-07-25T05:41:58.615Z,97312.67
2018-07-25T05:44:26.657Z,97324.16
2018-07-25T05:46:54.786Z,97316.67
2018-07-25T05:49:22.912Z,97325.40
2018-07-25T05:51:50.979Z,97320.91
2018-07-25T05:54:19.005Z,97319.98
2018-07-25T05:56:47.073Z,97329.42
2018-07-25T05:59:15.145Z,97336.47
2018-07-25T06:01:43.235Z,97334.20
2018-07-25T06:04:11.326Z,97331.45
2018-07-25T06:06:39.429Z,97330.17
2018-07-25T06:09:09.234Z,97338.86
2018-07-25T06:11:37.601Z,97346.36
2018-07-25T06:14:05.625Z,97348.41
2018-07-25T06:16:33.757Z,97343.77
2018-07-25T06:19:01.875Z,97341.56
2018-07-25T06:21:29.845Z,97346.17
2018-07-25T06:23:58.047Z,97343.47
2018-07-25T06:26:26.084Z,97349.02
2018-07-25T06:28:54.167Z,97354.00
2018-07-25T06:31:22.461Z,97353.84
2018-07-25T06:33:50.609Z,97347.31
2018-07-25T06:36:18.602Z,97343.78
2018-07-25T06:38:46.728Z,97360.05
2018-07-25T06:41:14.903Z,97345.45
2018-07-25T06:43:43.035Z,97358.25
2018-07-25T06:46:11.061Z,97361.39
2018-07-25T06:48:39.136Z,97370.94
2018-07-25T06:51:07.487Z,97369.90
2018-07-25T06:53:35.547Z,97374.41
2018-07-25T06:56:03.563Z,97372.28
2018-07-25T06:58:31.978Z,97375.61
2018-07-25T07:01:00.023Z,97371.61
2018-07-25T07:03:28.058Z,97374.31
2018-07-25T07:05:56.059Z,97383.99
2018-07-25T07:08:24.124Z,97384.53
2018-07-25T07:10:52.323Z,97388.24
2018-07-25T07:13:20.395Z,97389.53
2018-07-25T07:15:48.590Z,97393.52
2018-07-25T07:18:16.525Z,97400.16
2018-07-25T07:20:44.543Z,97404.66
2018-07-25T07:23:12.707Z,97401.03
2018-07-25T07:25:40.833Z,97402.73
2018-07-25T07:28:08.929Z,97410.44
2018-07-25T07:30:37.191Z,97413.61
2018-07-25T07:33:05.330Z,97419.03
2018-07-25T07:35:33.425Z,97414.50
2018-07-25T07:38:01.495Z,97416.91
2018-07-25T07:40:29.554Z,97412.25
2018-07-25T07:42:57.622Z,97415.89
2018-07-25T07:45:25.716Z,97415.25
2018-07-25T07:47:53.809Z,97409.84
2018-07-25T07:50:21.930Z,97415.30
2018-07-25T07:52:50.019Z,97413.66
2018-07-25T07:55:18.033Z,97421.00
2018-07-25T07:57:46.005Z,97417.16
2018-07-25T08:00:14.027Z,97413.47
2018-07-25T08:02:42.121Z,97409.24
2018-07-25T08:05:10.124Z,97416.47
2018-07-25T08:07:38.270Z,97412.09
2018-07-25T08:10:06.477Z,97415.44
2018-07-25T08:12:34.463Z,97414.97
2018-07-25T08:15:03.164Z,97414.65
2018-07-25T08:17:31.169Z,97426.81
2018-07-25T08:19:59.249Z,97418.20
2018-07-25T08:22:27.320Z,97413.97
2018-07-25T08:24:55.323Z,97409.77
2018-07-25T08:27:23.532Z,97421.03
2018-07-25T08:29:51.642Z,97425.13
2018-07-25T08:32:19.707Z,97413.84
2018-07-25T08:34:47.909Z,97420.05
2018-07-25T08:37:15.995Z,97410.22
2018-07-25T08:39:44.033Z,97415.19
2018-07-25T08:42:12.135Z,97411.27
2018-07-25T08:44:40.176Z,97405.52
2018-07-25T08:47:08.255Z,97400.56
2018-07-25T08:49:36.226Z,97395.09
2018-07-25T08:52:04.312Z,97393.46
2018-07-25T08:54:32.378Z,97387.59
2018-07-25T08:57:00.558Z,97388.73
2018-07-25T08:59:28.568Z,97388.45
2018-07-25T09:01:56.762Z,97387.79
2018-07-25T09:04:24.823Z,97383.35
2018-07-25T09:06:53.205Z,97389.09
2018-07-25T09:09:21.303Z,97380.40
2018-07-25T09:11:49.474Z,97388.16
2018-07-25T09:14:17.503Z,97390.20
2018-07-25T09:16:45.654Z,97382.95
2018-07-25T09:19:13.559Z,97381.73
2018-07-25T09:21:41.601Z,97388.23
2018-07-25T09:24:09.574Z,97380.22
2018-07-25T09:26:37.868Z,97379.46
2018-07-25T09:29:05.927Z,97373.88
2018-07-25T09:31:33.905Z,97368.44
2018-07-25T09:34:02.092Z,97366.75
2018-07-25T09:36:30.178Z,97360.43
2018-07-25T09:38:58.230Z,97360.48
2018-07-25T09:41:26.240Z,97360.17
2018-07-25T09:43:54.533Z,97354.65
2018-07-25T09:46:22.546Z,97352.02
2018-07-25T09:48:50.535Z,97360.50
2018-07-25T09:51:18.610Z,97354.31
2018-07-25T09:53:46.562Z,97356.97
2018-07-25T09:56:14.595Z,97349.11
2018-07-25T09:58:42.701Z,97358.09
2018-07-25T10:01:10.832Z,97347.52
2018-07-25T10:03:38.893Z,97352.45
2018-07-25T10:06:06.965Z,97346.47
2018-07-25T10:08:35.095Z,97348.91
2018-07-25T10:11:05.737Z,97335.88
2018-07-25T10:13:33.832Z,97332.02
2018-07-25T10:16:02.526Z,97331.44
2018-07-25T10:18:30.450Z,97329.34
2018-07-25T10:20:58.668Z,97325.72
2018-07-25T10:23:26.819Z,97325.55
2018-07-25T10:25:56.187Z,97323.45
2018-07-25T10:28:24.288Z,97320.54
2018-07-25T10:30:52.303Z,97320.54
2018-07-25T10:33:20.393Z,97315.35
2018-07-25T10:35:48.452Z,97312.98
2018-07-25T10:38:16.749Z,97314.45
2018-07-25T10:40:44.861Z,97315.70
2018-07-25T10:43:12.895Z,97317.58
2018-07-25T10:45:41.025Z,97307.60
2018-07-25T10:48:09.170Z,97308.71
2018-07-25T10:50:37.294Z,97315.02
2018-07-25T10:53:06.675Z,97311.14
2018-07-25T10:55:34.861Z,97320.80
2018-07-25T10:58:03.061Z,97336.77
2018-07-25T11:00:31.231Z,97340.23
2018-07-25T11:02:59.182Z,97339.28
2018-07-25T11:05:27.851Z,97345.56
2018-07-25T11:07:56.262Z,97341.33
2018-07-25T11:10:24.464Z,97354.70
2018-07-25T11:12:52.437Z,97358.63
2018-07-25T11:15:20.396Z,97361.75
2018-07-25T11:17:48.550Z,97364.58
2018-07-25T11:20:16.578Z,97363.37
2018-07-25T11:22:44.618Z,97362.05
2018-07-25T11:25:13.307Z,97356.86
2018-07-25T11:27:41.394Z,97353.88
2018-07-25T11:30:09.551Z,97351.98
2018-07-25T11:32:38.958Z,97346.52
2018-07-25T11:38:50.207Z,97346.80
2018-07-25T11:41:22.877Z,97342.45
2018-07-25T11:46:41.736Z,97335.31
2018-07-25T11:49:25.222Z,97323.11
2018-07-25T11:51:53.455Z,97324.42
2018-07-25T11:54:21.578Z,97329.17
2018-07-25T11:56:49.671Z,97337.98
2018-07-25T11:59:17.675Z,97343.04
2018-07-25T12:01:45.763Z,97341.87
2018-07-25T12:04:14.134Z,97340.66
2018-07-25T12:06:42.437Z,97340.42
2018-07-25T12:09:11.428Z,97336.36
2018-07-25T12:11:43.833Z,97341.95
2018-07-25T12:14:12.296Z,97332.00
2018-07-25T12:16:40.398Z,97322.97
2018-07-25T12:19:09.106Z,97329.27
2018-07-25T12:21:37.284Z,97336.30
2018-07-25T12:24:05.473Z,97333.98
2018-07-25T12:26:33.868Z,97330.27
2018-07-25T12:29:02.276Z,97334.24
2018-07-25T12:31:30.444Z,97325.20
2018-07-25T12:33:58.573Z,97326.52
2018-07-25T12:36:26.742Z,97328.83
2018-07-25T12:38:55.068Z,97328.59
2018-07-25T12:41:23.195Z,97334.61
2018-07-25T12:43:51.374Z,97342.13
2018-07-25T12:46:20.363Z,97339.72
2018-07-25T12:48:48.543Z,97329.81
2018-07-25T12:51:16.582Z,97320.79
2018-07-25T12:53:44.632Z,97320.00
2018-07-25T12:56:12.604Z,97326.05
2018-07-25T12:58:40.819Z,97329.86
2018-07-25T13:01:08.844Z,97337.98
2018-07-25T13:03:36.994Z,97333.58
2018-07-25T13:06:05.649Z,97336.27
2018-07-25T13:08:33.629Z,97325.30
2018-07-25T13:11:01.686Z,97317.78
2018-07-25T13:13:29.973Z,97312.75
2018-07-25T13:15:58.564Z,97307.80
2018-07-25T13:18:26.574Z,97310.66
2018-07-25T13:20:54.596Z,97305.28
2018-07-25T13:25:59.836Z,97317.77
2018-07-25T13:28:29.628Z,97317.53
2018-07-25T13:30:58.303Z,97322.92
2018-07-25T13:33:26.955Z,97321.80
2018-07-25T13:35:57.963Z,97328.65
2018-07-25T13:38:27.854Z,97324.76
2018-07-25T13:40:57.618Z,97328.12
2018-07-25T13:43:36.709Z,97324.16
2018-07-25T13:46:05.103Z,97329.51
2018-07-25T13:48:36.375Z,97324.34
2018-07-25T13:51:04.569Z,97333.52
2018-07-25T13:53:32.581Z,97346.16
2018-07-25T13:56:00.623Z,97330.33
2018-07-25T13:58:28.776Z,97328.27
2018-07-25T14:00:56.933Z,97330.72
2018-07-25T14:03:24.960Z,97339.22
2018-07-25T14:05:53.127Z,97335.94
2018-07-25T14:08:21.118Z,97326.73
2018-07-25T14:10:49.383Z,97325.05
2018-07-25T14:13:17.473Z,97318.83
2018-07-25T14:15:45.470Z,97320.03
2018-07-25T14:18:13.670Z,97329.39
2018-07-25T14:20:41.740Z,97327.34
2018-07-25T14:23:09.387Z,97337.92
2018-07-25T14:25:37.478Z,97347.91
2018-07-25T14:28:05.677Z,97347.44
2018-07-25T14:30:33.886Z,97358.88
2018-07-25T14:33:01.814Z,97358.34
2018-07-25T14:35:30.057Z,97359.13
2018-07-25T14:37:58.034Z,97360.17
2018-07-25T14:40:26.233Z,97349.88
2018-07-25T14:42:54.239Z,97346.86
2018-07-25T14:45:22.427Z,97348.90
2018-07-25T14:47:50.644Z,97342.80
2018-07-25T14:50:18.928Z,97360.98
2018-07-25T14:52:47.022Z,97342.09
2018-07-25T14:55:36.462Z,97344.56
2018-07-25T14:58:18.071Z,97339.48
2018-07-25T15:00:46.165Z,97338.38
2018-07-25T15:03:14.617Z,97353.68
2018-07-25T15:05:42.716Z,97326.88
2018-07-25T15:08:10.822Z,97324.11
2018-07-25T15:10:38.888Z,97341.72
2018-07-25T15:13:07.271Z,97339.58
2018-07-25T15:15:35.390Z,97336.42
2018-07-25T15:18:03.578Z,97355.04
2018-07-25T15:20:31.693Z,97344.50
2018-07-25T15:22:59.914Z,97345.72
2018-07-25T15:25:29.054Z,97338.91
2018-07-25T15:27:57.042Z,97347.08
2018-07-25T15:30:25.314Z,97350.71
2018-07-25T15:32:53.892Z,97352.97
2018-07-25T15:35:22.125Z,97343.38
2018-07-25T15:37:50.358Z,97348.75
2018-07-25T15:40:18.361Z,97347.16
2018-07-25T15:42:46.649Z,97350.83
2018-07-25T15:45:15.785Z,97354.80
2018-07-25T15:47:43.991Z,97365.33
2018-07-25T15:50:12.250Z,97364.77
2018-07-25T15:52:40.408Z,97358.03
2018-07-25T15:55:08.505Z,97361.78
2018-07-25T15:57:36.910Z,97361.55
2018-07-25T16:00:06.725Z,97362.61
2018-07-25T16:02:34.880Z,97368.45
2018-07-25T16:05:03.186Z,97374.90
2018-07-25T16:07:31.381Z,97377.36
2018-07-25T16:09:59.642Z,97379.81
2018-07-25T16:12:27.645Z,97392.05
2018-07-25T16:14:56.034Z,97389.72
2018-07-25T16:17:24.173Z,97407.58
2018-07-25T16:19:52.374Z,97412.18
2018-07-25T16:22:20.360Z,97411.88
2018-07-25T16:24:48.807Z,97419.77
2018-07-25T16:27:16.901Z,97420.61
2018-07-25T16:29:44.968Z,97414.89
2018-07-25T16:32:13.046Z,97417.45
2018-07-25T16:34:41.123Z,97424.72
2018-07-25T16:37:09.263Z,97420.26
2018-07-25T16:39:37.311Z,97416.79
2018-07-25T16:42:05.532Z,97416.27
2018-07-25T16:44:33.657Z,97415.84
2018-07-25T16:47:01.875Z,97419.78
2018-07-25T16:49:30.051Z,97426.78
2018-07-25T16:51:58.093Z,97435.02
2018-07-25T16:54:26.175Z,97444.47
2018-07-25T16:56:54.348Z,97437.61
2018-07-25T16:59:22.432Z,97431.98
2018-07-25T17:01:50.627Z,97434.92
2018-07-25T17:04:18.746Z,97444.76
2018-07-25T17:06:46.813Z,97465.75
2018-07-25T17:09:14.932Z,97453.75
2018-07-25T17:11:43.069Z,97450.74
2018-07-25T17:14:11.296Z,97460.88
2018-07-25T17:16:39.554Z,97459.46
2018-07-25T17:19:08.237Z,97454.55
2018-07-25T17:21:36.391Z,97452.83
2018-07-25T17:24:04.728Z,97455.87
2018-07-25T17:26:32.835Z,97456.70
2018-07-25T17:29:01.372Z,97454.14
2018-07-25T17:31:29.393Z,97443.38
2018-07-25T17:33:57.670Z,97435.91
2018-07-25T17:36:26.038Z,97434.14
2018-07-25T17:38:54.171Z,97441.13
2018-07-25T17:41:22.306Z,97445.94
2018-07-25T17:43:50.426Z,97455.91
2018-07-25T17:46:18.822Z,97455.45
2018-07-25T17:48:46.957Z,97431.39
2018-07-25T17:51:15.154Z,97436.14
2018-07-25T17:53:43.375Z,97440.73
2018-07-25T17:56:11.414Z,97427.27
2018-07-25T17:58:39.604Z,97440.94
2018-07-25T18:01:07.624Z,97433.52
2018-07-25T18:03:35.874Z,97438.80
2018-07-25T18:06:04.051Z,97435.64
2018-07-25T18:08:32.235Z,97441.15
2018-07-25T18:11:01.283Z,97453.69
2018-07-25T18:13:34.815Z,97453.77
2018-07-25T18:16:03.798Z,97465.68
2018-07-25T18:18:31.966Z,97459.16
2018-07-25T18:21:03.962Z,97463.87
2018-07-25T18:23:32.277Z,97465.33
2018-07-25T18:26:00.482Z,97468.23
2018-07-25T18:28:28.747Z,97465.66
2018-07-25T18:30:56.895Z,97468.95
2018-07-25T18:33:25.896Z,97481.98
2018-07-25T18:35:57.305Z,97485.45
2018-07-25T18:38:26.042Z,97483.97
2018-07-25T18:40:54.596Z,97491.17
2018-07-25T18:43:22.622Z,97500.63
2018-07-25T18:45:54.643Z,97488.05
2018-07-25T18:48:22.603Z,97494.45
2018-07-25T18:50:52.960Z,97497.83
2018-07-25T18:53:36.852Z,97524.29
2018-07-25T18:56:05.314Z,97505.25
2018-07-25T18:58:33.931Z,97514.61
2018-07-25T19:01:02.175Z,97484.30
2018-07-25T19:03:30.418Z,97513.68
2018-07-25T19:05:58.614Z,97510.41
2018-07-25T19:08:26.753Z,97525.80
2018-07-25T19:10:54.783Z,97510.53
2018-07-25T19:13:28.846Z,97525.98
2018-07-25T19:15:57.092Z,97507.38
2018-07-25T19:18:25.218Z,97517.30
2018-07-25T19:20:53.343Z,97518.42
2018-07-25T19:23:21.548Z,97509.37
2018-07-25T19:25:49.675Z,97504.71
2018-07-25T19:28:17.870Z,97499.81
2018-07-25T19:30:45.952Z,97499.61
2018-07-25T19:33:14.073Z,97506.20
2018-07-25T19:35:42.404Z,97524.09
2018-07-25T19:38:10.587Z,97505.04
2018-07-25T19:40:38.741Z,97519.87
2018-07-25T19:43:06.940Z,97504.49
2018-07-25T19:45:35.187Z,97499.52
2018-07-25T19:48:03.432Z,97504.18
2018-07-25T19:50:31.546Z,97495.80
2018-07-25T19:52:59.619Z,97504.54
2018-07-25T19:55:27.643Z,97506.09
2018-07-25T19:57:55.812Z,97491.11
2018-07-25T20:00:23.965Z,97513.12
2018-07-25T20:02:52.186Z,97491.80
2018-07-25T20:05:20.331Z,97503.61
2018-07-25T20:07:48.364Z,97490.84
2018-07-25T20:10:16.345Z,97489.04
2018-07-25T20:12:44.417Z,97490.70
2018-07-25T20:15:17.799Z,97482.68
2018-07-25T20:17:45.840Z,97490.89
2018-07-25T20:20:13.993Z,97494.22
2018-07-25T20:22:42.131Z,97489.60
2018-07-25T20:25:10.287Z,97493.42
2018-07-25T20:27:38.845Z,97493.41
2018-07-25T20:30:08.502Z,97487.91
2018-07-25T20:32:36.744Z,97496.75
2018-07-25T20:35:05.345Z,97501.42
2018-07-25T20:37:33.612Z,97494.97
2018-07-25T20:40:01.885Z,97494.70
2018-07-25T20:42:30.035Z,97491.38
2018-07-25T20:44:58.128Z,97491.79
2018-07-25T20:47:26.406Z,97494.65
2018-07-25T20:49:54.339Z,97509.45
2018-07-25T20:52:22.340Z,97493.91
2018-07-25T20:54:50.416Z,97484.09
2018-07-25T20:57:18.438Z,97494.28
2018-07-25T20:59:46.487Z,97505.77
2018-07-25T21:02:14.560Z,97502.12
2018-07-25T21:04:43.071Z,97500.09
2018-07-25T21:07:11.139Z,97517.06
2018-07-25T21:09:39.147Z,97521.20
2018-07-25T21:12:07.203Z,97504.83
2018-07-25T21:14:35.165Z,97513.68
2018-07-25T21:17:03.333Z,97518.44
2018-07-25T21:19:31.308Z,97522.03
2018-07-25T21:21:59.431Z,97515.98
2018-07-25T21:24:27.374Z,97514.14
2018-07-25T21:26:55.332Z,97515.44
2018-07-25T21:29:23.379Z,97521.48
2018-07-25T21:31:51.281Z,97520.14
2018-07-25T21:34:19.379Z,97525.63
2018-07-25T21:36:47.421Z,97542.23
2018-07-25T21:39:15.479Z,97539.84
2018-07-25T21:41:43.602Z,97547.45
2018-07-25T21:44:11.586Z,97536.52
2018-07-25T21:46:39.603Z,97535.97
2018-07-25T21:49:07.615Z,97539.37
2018-07-25T21:51:35.986Z,97542.89
2018-07-25T21:54:03.972Z,97548.41
2018-07-25T21:56:32.491Z,97547.78
2018-07-25T21:59:00.502Z,97560.55
2018-07-25T22:01:28.494Z,97563.50
2018-07-25T22:03:56.564Z,97564.57
2018-07-25T22:06:24.540Z,97559.40
2018-07-25T22:08:52.633Z,97563.36
2018-07-25T22:11:20.690Z,97552.80
2018-07-25T22:13:55.664Z,97568.95
2018-07-25T22:16:24.800Z,97569.27
2018-07-25T22:18:52.891Z,97557.65
2018-07-25T22:21:20.881Z,97559.12
2018-07-25T22:23:48.807Z,97563.97
2018-07-25T22:26:16.842Z,97551.00
2018-07-25T22:28:44.758Z,97563.97
2018-07-25T22:31:12.869Z,97568.85
2018-07-25T22:33:40.920Z,97562.53
2018-07-25T22:36:09.475Z,97572.17
2018-07-25T22:38:37.428Z,97566.08
2018-07-25T22:41:05.739Z,97572.73
2018-07-25T22:43:33.659Z,97568.25
2018-07-25T22:46:01.850Z,97562.94
2018-07-25T22:48:29.933Z,97572.73
2018-07-25T22:50:58.052Z,97557.05
2018-07-25T22:53:26.015Z,97569.13
2018-07-25T22:55:54.105Z,97571.72
2018-07-25T22:58:22.178Z,97569.22
2018-07-25T23:00:50.208Z,97575.99
2018-07-25T23:03:18.221Z,97562.39
2018-07-25T23:05:46.192Z,97569.39
2018-07-25T23:08:14.532Z,97569.91
2018-07-25T23:10:42.598Z,97570.88
2018-07-25T23:13:10.651Z,97573.59
2018-07-25T23:15:38.763Z,97575.39
2018-07-25T23:18:06.743Z,97565.80
2018-07-25T23:20:34.998Z,97563.08
2018-07-25T23:23:03.275Z,97569.03
2018-07-25T23:25:31.213Z,97576.13
2018-07-25T23:27:59.886Z,97567.75
2018-07-25T23:30:29.066Z,97574.97
2018-07-25T23:32:57.066Z,97567.14
2018-07-25T23:35:25.118Z,97566.45
2018-07-25T23:37:53.207Z,97571.34
2018-07-25T23:40:21.256Z,97557.00
2018-07-25T23:42:49.903Z,97556.47
2018-07-25T23:45:18.612Z,97558.36
2018-07-25T23:47:46.669Z,97554.48
2018-07-25T23:50:14.811Z,97565.96
2018-07-25T23:52:42.785Z,97558.76
2018-07-25T23:55:10.818Z,97568.72
2018-07-25T23:57:38.862Z,97573.24
